createdAt,value
2019-03-13T00:00:53.062Z,97156.53
2019-03-13T00:04:01.516Z,97162.11
2019-03-13T00:06:54.071Z,97195.44
2019-03-13T00:09:43.338Z,97185.45
2019-03-13T00:12:33.526Z,97147.55
2019-03-13T00:15:22.860Z,97223.28
2019-03-13T00:18:12.671Z,97221.24
2019-03-13T00:21:03.209Z,97228.57
2019-03-13T00:23:52.580Z,97262.47
2019-03-13T00:26:42.312Z,97266.48
2019-03-13T00:29:31.781Z,97297.25
2019-03-13T00:32:21.229Z,97302.42
2019-03-13T00:34:51.864Z,97322.55
2019-03-13T00:37:42.227Z,97327.80
2019-03-13T00:40:31.707Z,97318.58
2019-03-13T00:43:22.125Z,97333.64
2019-03-13T00:46:04.783Z,97352.55
2019-03-13T00:48:34.977Z,97365.78
2019-03-13T00:51:27.088Z,97389.47
2019-03-13T00:54:17.790Z,97393.38
2019-03-13T00:57:07.322Z,97299.65
2019-03-13T00:59:56.974Z,97426.09
2019-03-13T01:02:46.699Z,97424.70
2019-03-13T01:05:44.215Z,97455.12
2019-03-13T01:08:25.934Z,97472.30
2019-03-13T01:11:09.136Z,97470.91
2019-03-13T01:16:35.697Z,97462.17
2019-03-13T01:19:27.155Z,97458.53
2019-03-13T01:21:57.855Z,97486.98
2019-03-13T01:27:26.235Z,97528.02
2019-03-13T01:29:56.900Z,97529.60
2019-03-13T01:35:43.731Z,97545.10
2019-03-13T01:38:33.144Z,97544.33
2019-03-13T01:41:08.822Z,97567.73
2019-03-13T01:43:59.267Z,97580.73
2019-03-13T01:46:50.465Z,97454.98
2019-03-13T01:49:32.165Z,97576.05
2019-03-13T01:52:13.903Z,97426.19
2019-03-13T01:54:56.980Z,97566.39
2019-03-13T01:57:38.659Z,97567.34
2019-03-13T02:00:18.924Z,97586.91
2019-03-13T02:06:40.438Z,97597.53
2019-03-13T02:09:12.398Z,97600.18
2019-03-13T02:11:44.126Z,97606.13
2019-03-13T02:14:27.485Z,97598.39
2019-03-13T02:17:18.442Z,97599.05
2019-03-13T02:23:26.848Z,97603.80
2019-03-13T02:26:17.609Z,97617.71
2019-03-13T02:29:07.040Z,97597.80
2019-03-13T02:31:56.914Z,97604.70
2019-03-13T02:34:55.319Z,97599.09
2019-03-13T02:37:46.030Z,97599.52
2019-03-13T02:40:35.364Z,97610.38
2019-03-13T02:46:19.409Z,97625.61
2019-03-13T02:51:47.073Z,97641.92
2019-03-13T02:54:19.367Z,97651.23
2019-03-13T02:56:49.602Z,97650.03
2019-03-13T02:59:40.254Z,97655.45
2019-03-13T03:02:29.497Z,97659.15
2019-03-13T03:05:20.026Z,97651.25
2019-03-13T03:07:53.255Z,97653.32
2019-03-13T03:10:43.657Z,97652.11
2019-03-13T03:13:33.626Z,97644.23
2019-03-13T03:16:25.414Z,97651.88
2019-03-13T03:19:15.909Z,97648.63
2019-03-13T03:24:46.769Z,97656.09
2019-03-13T03:27:36.485Z,97657.80
2019-03-13T03:33:37.069Z,97664.22
2019-03-13T03:36:26.763Z,97665.66
2019-03-13T03:39:16.927Z,97670.04
2019-03-13T03:45:05.683Z,97667.74
2019-03-13T03:47:48.152Z,97675.73
2019-03-13T03:50:30.337Z,97690.31
2019-03-13T03:55:53.184Z,97700.78
2019-03-13T03:58:42.361Z,97713.47
2019-03-13T04:01:13.365Z,97721.61
2019-03-13T04:04:03.989Z,97714.16
2019-03-13T04:06:34.604Z,97712.06
2019-03-13T04:09:28.644Z,97708.91
2019-03-13T04:12:18.023Z,97676.92
2019-03-13T04:15:08.166Z,97706.55
2019-03-13T04:17:57.820Z,97703.84
2019-03-13T04:20:48.294Z,97704.78
2019-03-13T04:23:38.269Z,97700.50
2019-03-13T04:26:27.889Z,97706.30
2019-03-13T04:29:17.225Z,97710.42
2019-03-13T04:32:08.213Z,97710.00
2019-03-13T04:34:57.732Z,97710.95
2019-03-13T04:37:46.969Z,97722.58
2019-03-13T04:40:36.849Z,97744.25
2019-03-13T04:43:28.121Z,97750.45
2019-03-13T04:46:17.664Z,97758.84
2019-03-13T04:49:09.078Z,97765.31
2019-03-13T04:51:50.548Z,97775.37
2019-03-13T04:54:32.047Z,97780.16
2019-03-13T04:59:41.764Z,97776.13
2019-03-13T05:02:31.042Z,97781.38
2019-03-13T05:05:39.249Z,97782.05
2019-03-13T05:08:44.601Z,97775.76
2019-03-13T05:11:24.399Z,97776.37
2019-03-13T05:14:14.596Z,97772.98
2019-03-13T05:17:03.874Z,97777.38
2019-03-13T05:19:45.283Z,97772.30
2019-03-13T05:22:15.756Z,97765.95
2019-03-13T05:25:05.621Z,97765.05
2019-03-13T05:27:35.762Z,97764.08
2019-03-13T05:30:24.990Z,97753.37
2019-03-13T05:32:55.523Z,97761.30
2019-03-13T05:35:45.015Z,97761.81
2019-03-13T05:38:15.240Z,97754.52
2019-03-13T05:40:46.680Z,97756.25
2019-03-13T05:43:17.136Z,97755.00
2019-03-13T05:45:47.594Z,97755.29
2019-03-13T05:48:17.912Z,97754.23
2019-03-13T05:50:59.546Z,97761.05
2019-03-13T05:53:41.158Z,97760.83
2019-03-13T05:56:11.678Z,97768.47
2019-03-13T05:59:02.907Z,97766.09
2019-03-13T06:01:52.421Z,97773.20
2019-03-13T06:04:22.677Z,97774.67
2019-03-13T06:07:12.199Z,97780.14
2019-03-13T06:10:01.636Z,97779.03
2019-03-13T06:12:52.324Z,97774.38
2019-03-13T06:15:22.600Z,97772.33
2019-03-13T06:17:52.756Z,97766.20
2019-03-13T06:20:22.936Z,97766.52
2019-03-13T06:23:12.512Z,97764.72
2019-03-13T06:26:01.780Z,97759.25
2019-03-13T06:28:32.342Z,97755.83
2019-03-13T06:31:02.533Z,97758.36
2019-03-13T06:33:51.950Z,97756.86
2019-03-13T06:36:22.103Z,97751.38
2019-03-13T06:39:11.743Z,97754.13
2019-03-13T06:41:42.065Z,97675.10
2019-03-13T06:44:12.647Z,97750.71
2019-03-13T06:47:07.533Z,97744.67
2019-03-13T06:49:58.538Z,97754.76
2019-03-13T06:55:12.058Z,97767.38
2019-03-13T06:57:42.401Z,97761.97
2019-03-13T07:00:50.793Z,97757.95
2019-03-13T07:03:39.930Z,97749.10
2019-03-13T07:06:27.820Z,97753.55
2019-03-13T07:09:17.132Z,97746.08
2019-03-13T07:12:28.342Z,97741.69
2019-03-13T07:15:39.483Z,97745.63
2019-03-13T07:18:34.414Z,97746.32
2019-03-13T07:21:23.758Z,97745.76
2019-03-13T07:24:12.902Z,97751.66
2019-03-13T07:26:47.800Z,97746.53
2019-03-13T07:29:30.701Z,97749.44
2019-03-13T07:32:22.908Z,97746.55
2019-03-13T07:35:34.211Z,97742.83
2019-03-13T07:38:23.276Z,97751.02
2019-03-13T07:41:00.156Z,97745.44
2019-03-13T07:43:49.233Z,97748.94
2019-03-13T07:46:38.628Z,97733.05
2019-03-13T07:49:27.680Z,97730.51
2019-03-13T07:52:16.885Z,97719.03
2019-03-13T07:55:06.582Z,97721.20
2019-03-13T07:57:57.074Z,97718.45
2019-03-13T08:03:49.238Z,97722.33
2019-03-13T08:06:38.258Z,97727.53
2019-03-13T08:09:46.720Z,97727.62
2019-03-13T08:12:55.076Z,97738.58
2019-03-13T08:15:59.822Z,97731.23
2019-03-13T08:18:50.614Z,97739.03
2019-03-13T08:21:48.564Z,97737.31
2019-03-13T08:24:57.655Z,97740.74
2019-03-13T08:28:07.167Z,97751.14
2019-03-13T08:30:56.583Z,97626.55
2019-03-13T08:33:46.020Z,97765.40
2019-03-13T08:36:23.488Z,97754.52
2019-03-13T08:39:12.645Z,97748.41
2019-03-13T08:41:58.701Z,97780.30
2019-03-13T08:45:15.573Z,97759.70
2019-03-13T08:48:04.702Z,97760.97
2019-03-13T08:50:51.208Z,97759.09
2019-03-13T08:53:59.347Z,97762.22
2019-03-13T08:57:07.766Z,97748.80
2019-03-13T09:00:15.818Z,97734.05
2019-03-13T09:03:24.468Z,97748.55
2019-03-13T09:06:11.947Z,97738.77
2019-03-13T09:11:55.019Z,97742.98
2019-03-13T09:14:43.904Z,97750.80
2019-03-13T09:17:27.298Z,97687.97
2019-03-13T09:20:19.577Z,97740.98
2019-03-13T09:23:18.337Z,97742.05
2019-03-13T09:26:07.368Z,97736.08
2019-03-13T09:29:15.507Z,97728.41
2019-03-13T09:32:23.616Z,97718.64
2019-03-13T09:35:31.724Z,97708.82
2019-03-13T09:38:40.416Z,97706.05
2019-03-13T09:41:32.182Z,97688.39
2019-03-13T09:44:21.285Z,97700.06
2019-03-13T09:47:29.501Z,97700.31
2019-03-13T09:50:18.578Z,97698.80
2019-03-13T09:53:08.434Z,97695.23
2019-03-13T09:56:16.585Z,97700.27
2019-03-13T09:59:17.353Z,97692.03
2019-03-13T10:02:17.349Z,97572.20
2019-03-13T10:05:25.558Z,97667.04
2019-03-13T10:08:33.656Z,97674.80
2019-03-13T10:11:43.879Z,97672.99
2019-03-13T10:14:51.995Z,97675.63
2019-03-13T10:18:00.384Z,97666.25
2019-03-13T10:21:08.504Z,97662.41
2019-03-13T10:24:16.907Z,97680.14
2019-03-13T10:27:25.024Z,97669.04
2019-03-13T10:30:04.267Z,97667.68
2019-03-13T10:33:12.752Z,97670.27
2019-03-13T10:36:20.807Z,97669.91
2019-03-13T10:39:10.276Z,97663.52
2019-03-13T10:42:10.403Z,97671.05
2019-03-13T10:45:18.801Z,97670.66
2019-03-13T10:48:26.890Z,97662.88
2019-03-13T10:51:16.360Z,97659.55
2019-03-13T10:54:24.513Z,97665.23
2019-03-13T10:57:24.712Z,97668.34
2019-03-13T11:00:25.287Z,97679.63
2019-03-13T11:03:14.363Z,97677.02
2019-03-13T11:06:22.761Z,97673.05
2019-03-13T11:09:28.667Z,97674.47
2019-03-13T11:12:37.433Z,97673.45
2019-03-13T11:15:27.143Z,97659.66
2019-03-13T11:18:26.464Z,97657.59
2019-03-13T11:21:15.539Z,97664.97
2019-03-13T11:24:24.207Z,97655.33
2019-03-13T11:27:13.578Z,97664.02
2019-03-13T11:30:24.043Z,97665.22
2019-03-13T11:33:51.164Z,97656.13
2019-03-13T11:36:50.331Z,97660.80
2019-03-13T11:39:39.481Z,97667.32
2019-03-13T11:42:48.683Z,97661.75
2019-03-13T11:45:37.780Z,97668.25
2019-03-13T11:48:44.957Z,97676.73
2019-03-13T11:51:53.294Z,97667.92
2019-03-13T11:55:01.488Z,97673.48
2019-03-13T11:58:09.622Z,97658.09
2019-03-13T12:01:17.790Z,97649.34
2019-03-13T12:04:25.982Z,97639.02
2019-03-13T12:07:35.185Z,97628.11
2019-03-13T12:10:25.362Z,97624.51
2019-03-13T12:13:22.624Z,97633.69
2019-03-13T12:15:58.600Z,97618.30
2019-03-13T12:19:06.708Z,97607.89
2019-03-13T12:21:57.818Z,97608.29
2019-03-13T12:28:06.237Z,97613.63
2019-03-13T12:30:45.134Z,97620.88
2019-03-13T12:33:37.024Z,97616.17
2019-03-13T12:36:29.802Z,97606.65
2019-03-13T12:39:19.031Z,97608.73
2019-03-13T12:44:44.929Z,97598.20
2019-03-13T12:47:45.955Z,97592.09
2019-03-13T12:59:16.693Z,97562.44
2019-03-13T13:02:09.011Z,97568.77
2019-03-13T13:05:04.743Z,97557.63
2019-03-13T13:07:53.896Z,97588.29
2019-03-13T13:11:03.255Z,97619.62
2019-03-13T13:13:52.342Z,97620.50
2019-03-13T13:17:00.501Z,97624.16
2019-03-13T13:19:50.309Z,97638.24
2019-03-13T13:22:40.236Z,97636.75
2019-03-13T13:25:10.709Z,97649.16
2019-03-13T13:28:01.261Z,97620.95
2019-03-13T13:30:51.210Z,97605.14
2019-03-13T13:33:40.933Z,97601.38
2019-03-13T13:36:11.698Z,97469.81
2019-03-13T13:38:42.195Z,97600.30
2019-03-13T13:41:24.442Z,97601.55
2019-03-13T13:43:54.830Z,97589.53
2019-03-13T13:46:44.783Z,97598.22
2019-03-13T13:49:35.672Z,97595.59
2019-03-13T13:52:27.556Z,97593.83
2019-03-13T14:01:16.163Z,97595.75
2019-03-13T14:03:47.878Z,97593.95
2019-03-13T14:06:19.956Z,97595.08
2019-03-13T14:08:52.147Z,97594.48
2019-03-13T14:11:22.382Z,97585.58
2019-03-13T14:14:11.801Z,97586.23
2019-03-13T14:16:41.950Z,97577.66
2019-03-13T14:19:31.218Z,97567.36
2019-03-13T14:22:22.143Z,97562.92
2019-03-13T14:24:52.277Z,97560.75
2019-03-13T14:27:41.820Z,97562.47
2019-03-13T14:33:27.755Z,97463.32
2019-03-13T14:35:58.450Z,97548.15
2019-03-13T14:38:29.803Z,97549.80
2019-03-13T14:41:01.775Z,97538.34
2019-03-13T14:43:32.454Z,97551.69
2019-03-13T14:46:03.241Z,97541.23
2019-03-13T14:48:52.945Z,97538.80
2019-03-13T14:51:42.429Z,97514.91
2019-03-13T14:54:12.838Z,97551.70
2019-03-13T14:56:43.415Z,97541.38
2019-03-13T14:59:33.456Z,97536.03
2019-03-13T15:02:22.674Z,97527.52
2019-03-13T15:05:12.784Z,97543.77
2019-03-13T15:07:46.530Z,97549.30
2019-03-13T15:10:36.556Z,97539.61
2019-03-13T15:15:46.901Z,97551.69
2019-03-13T15:18:36.563Z,97550.01
2019-03-13T15:21:25.918Z,97538.09
2019-03-13T15:23:59.627Z,97545.50
2019-03-13T15:26:48.858Z,97538.42
2019-03-13T15:29:38.401Z,97543.83
2019-03-13T15:32:20.503Z,97540.97
2019-03-13T15:35:01.884Z,97533.69
2019-03-13T15:37:44.778Z,97536.70
2019-03-13T15:40:26.225Z,97537.72
2019-03-13T15:43:10.237Z,97534.17
2019-03-13T15:45:52.008Z,97536.98
2019-03-13T15:48:22.909Z,97543.94
2019-03-13T15:54:08.820Z,97527.58
2019-03-13T15:56:58.130Z,97520.41
2019-03-13T16:00:06.675Z,97530.81
2019-03-13T16:02:56.342Z,97529.55
2019-03-13T16:05:28.741Z,97529.33
2019-03-13T16:08:18.378Z,97522.69
2019-03-13T16:11:08.184Z,97373.17
2019-03-13T16:13:38.358Z,97515.83
2019-03-13T16:16:27.872Z,97515.53
2019-03-13T16:19:17.067Z,97514.92
2019-03-13T16:22:07.569Z,97517.42
2019-03-13T16:24:56.901Z,97517.92
2019-03-13T16:27:46.105Z,97519.03
2019-03-13T16:30:40.477Z,97514.08
2019-03-13T16:33:10.736Z,97506.08
2019-03-13T16:35:41.151Z,97509.33
2019-03-13T16:38:11.345Z,97505.23
2019-03-13T16:40:41.561Z,97509.25
2019-03-13T16:43:23.079Z,97502.73
2019-03-13T16:45:53.350Z,97499.36
2019-03-13T16:48:42.571Z,97504.42
2019-03-13T16:51:31.934Z,97502.55
2019-03-13T16:54:22.950Z,97504.62
2019-03-13T16:56:53.353Z,97498.59
2019-03-13T17:00:00.050Z,97501.20
2019-03-13T17:02:36.474Z,97501.50
2019-03-13T17:08:03.372Z,97400.35
2019-03-13T17:10:44.742Z,97526.24
2019-03-13T17:13:26.291Z,97523.55
2019-03-13T17:16:08.057Z,97518.91
2019-03-13T17:18:51.685Z,97533.32
2019-03-13T17:21:33.649Z,97530.70
2019-03-13T17:24:15.624Z,97427.58
2019-03-13T17:26:46.163Z,97528.47
2019-03-13T17:29:16.873Z,97522.72
2019-03-13T17:32:07.353Z,97527.65
2019-03-13T17:34:40.794Z,97517.97
2019-03-13T17:37:12.523Z,97520.11
2019-03-13T17:40:02.267Z,97517.50
2019-03-13T17:42:36.728Z,97506.53
2019-03-13T17:45:08.771Z,97504.38
2019-03-13T17:47:58.296Z,97488.48
2019-03-13T17:50:49.285Z,97488.94
2019-03-13T17:53:41.085Z,97481.90
2019-03-13T17:56:12.948Z,97485.13
2019-03-13T17:59:04.356Z,97489.60
2019-03-13T18:02:12.433Z,97493.50
2019-03-13T18:05:02.061Z,97489.98
2019-03-13T18:07:46.109Z,97498.98
2019-03-13T18:10:27.523Z,97491.93
2019-03-13T18:13:08.919Z,97501.12
2019-03-13T18:15:51.509Z,97500.29
2019-03-13T18:18:32.715Z,97502.16
2019-03-13T18:21:02.961Z,97502.32
2019-03-13T18:23:52.186Z,97507.25
2019-03-13T18:26:22.421Z,97370.09
2019-03-13T18:28:52.620Z,97502.30
2019-03-13T18:31:41.859Z,97501.64
2019-03-13T18:34:12.063Z,97497.08
2019-03-13T18:37:01.591Z,97503.97
2019-03-13T18:39:31.760Z,97515.22
2019-03-13T18:42:20.954Z,97514.27
2019-03-13T18:45:04.152Z,97514.80
2019-03-13T18:47:34.508Z,97537.89
2019-03-13T18:50:23.777Z,97529.20
2019-03-13T18:53:13.139Z,97547.58
2019-03-13T18:56:02.780Z,97554.56
2019-03-13T18:58:35.056Z,97555.53
2019-03-13T19:01:08.305Z,97564.67
2019-03-13T19:03:59.158Z,97568.55
2019-03-13T19:06:50.063Z,97569.69
2019-03-13T19:09:22.878Z,97584.23
2019-03-13T19:11:53.192Z,97585.31
2019-03-13T19:14:24.960Z,97582.97
2019-03-13T19:17:14.355Z,97580.02
2019-03-13T19:20:05.420Z,97576.24
2019-03-13T19:22:37.239Z,97577.23
2019-03-13T19:25:09.048Z,97573.44
2019-03-13T19:28:00.186Z,97572.61
2019-03-13T19:33:31.429Z,97574.83
2019-03-13T19:36:02.451Z,97568.98
2019-03-13T19:38:54.026Z,97565.70
2019-03-13T19:41:33.350Z,97570.44
2019-03-13T19:44:07.138Z,97575.63
2019-03-13T19:46:56.856Z,97579.03
2019-03-13T19:49:48.678Z,97581.95
2019-03-13T19:52:39.314Z,97597.98
2019-03-13T19:55:28.688Z,97598.73
2019-03-13T19:57:59.565Z,97603.08
2019-03-13T20:00:29.924Z,97607.66
2019-03-13T20:03:01.050Z,97604.38
2019-03-13T20:05:44.173Z,97605.31
2019-03-13T20:08:03.516Z,97600.13
2019-03-13T20:10:44.834Z,97592.25
2019-03-13T20:13:28.174Z,97598.42
2019-03-13T20:16:08.252Z,97600.25
2019-03-13T20:18:38.830Z,97589.50
2019-03-13T20:21:31.133Z,97597.58
2019-03-13T20:24:23.035Z,97580.51
2019-03-13T20:27:14.684Z,97563.94
2019-03-13T20:30:05.485Z,97526.88
2019-03-13T20:32:35.846Z,97572.25
2019-03-13T20:35:07.285Z,97588.36
2019-03-13T20:37:40.956Z,97593.09
2019-03-13T20:40:39.830Z,97594.59
2019-03-13T20:43:29.245Z,97595.73
2019-03-13T20:46:20.746Z,97597.34
2019-03-13T20:51:28.375Z,97598.53
2019-03-13T20:56:36.716Z,97587.52
2019-03-13T21:01:45.660Z,97594.30
2019-03-13T21:04:35.200Z,97593.94
2019-03-13T21:07:06.328Z,97598.45
2019-03-13T21:12:44.153Z,97589.68
2019-03-13T21:15:33.395Z,97593.55
2019-03-13T21:18:06.350Z,97598.53
2019-03-13T21:20:56.150Z,97594.36
2019-03-13T21:23:28.883Z,97603.91
2019-03-13T21:26:00.097Z,97605.36
2019-03-13T21:28:52.023Z,97604.32
2019-03-13T21:31:43.217Z,97600.43
2019-03-13T21:34:33.209Z,97599.95
2019-03-13T21:37:24.402Z,97605.63
2019-03-13T21:39:54.750Z,97614.91
2019-03-13T21:43:04.275Z,97630.30
2019-03-13T21:45:46.839Z,97638.07
2019-03-13T21:48:30.636Z,97653.50
2019-03-13T21:51:12.981Z,97639.92
2019-03-13T21:53:54.692Z,97640.60
2019-03-13T21:56:26.336Z,97650.48
2019-03-13T21:59:15.550Z,97650.20
2019-03-13T22:05:24.994Z,97671.87
2019-03-13T22:08:06.078Z,97660.52
2019-03-13T22:10:55.624Z,97669.72
2019-03-13T22:13:37.598Z,97666.70
2019-03-13T22:16:08.654Z,97669.92
2019-03-13T22:18:58.181Z,97677.92
2019-03-13T22:21:47.376Z,97672.59
2019-03-13T22:31:02.947Z,97673.21
2019-03-13T22:33:53.030Z,97681.58
2019-03-13T22:36:42.266Z,97674.25
2019-03-13T22:39:31.696Z,97685.47
2019-03-13T22:42:21.565Z,97553.68
2019-03-13T22:45:13.470Z,97692.80
2019-03-13T22:48:03.349Z,97700.13
2019-03-13T22:50:52.929Z,97697.30
2019-03-13T22:53:42.174Z,97697.22
2019-03-13T22:56:12.304Z,97560.80
2019-03-13T22:59:01.667Z,97716.52
2019-03-13T23:01:31.956Z,97715.00
2019-03-13T23:04:08.527Z,97734.70
2019-03-13T23:06:57.751Z,97729.73
2019-03-13T23:09:50.853Z,97728.58
2019-03-13T23:12:59.169Z,97733.88
2019-03-13T23:15:39.470Z,97748.59
2019-03-13T23:18:29.210Z,97753.19
2019-03-13T23:20:59.501Z,97748.36
2019-03-13T23:23:29.820Z,97754.06
2019-03-13T23:26:19.220Z,97745.20
2019-03-13T23:29:02.177Z,97743.59
2019-03-13T23:31:43.387Z,97750.03
2019-03-13T23:37:05.334Z,97765.36
2019-03-13T23:42:32.989Z,97767.94
2019-03-13T23:47:56.232Z,97772.73
2019-03-13T23:50:45.734Z,97781.42
2019-03-13T23:53:34.929Z,97783.72
2019-03-13T23:56:05.157Z,97779.18
2019-03-13T23:58:54.419Z,97793.67
